createdAt,value
2019-04-10T00:02:21.708Z,101620.05
2019-04-10T00:04:49.553Z,101615.95
2019-04-10T00:07:18.371Z,101612.32
2019-04-10T00:09:47.504Z,101620.05
2019-04-10T00:12:15.703Z,101620.81
2019-04-10T00:14:45.151Z,101621.95
2019-04-10T00:17:13.138Z,101623.17
2019-04-10T00:19:40.996Z,101624.59
2019-04-10T00:22:09.706Z,101624.84
2019-04-10T00:24:37.884Z,101627.62
2019-04-10T00:27:06.139Z,101622.84
2019-04-10T00:29:34.226Z,101627.05
2019-04-10T00:32:02.372Z,101619.89
2019-04-10T00:34:31.743Z,101625.48
2019-04-10T00:36:59.670Z,101627.26
2019-04-10T00:39:28.598Z,101621.23
2019-04-10T00:41:56.829Z,101619.10
2019-04-10T00:44:25.754Z,101616.12
2019-04-10T00:46:53.593Z,101561.83
2019-04-10T00:49:22.392Z,101630.45
2019-04-10T00:51:50.156Z,101631.95
2019-04-10T00:54:18.162Z,101628.35
2019-04-10T00:56:46.176Z,101626.78
2019-04-10T00:59:14.141Z,101631.65
2019-04-10T01:01:41.904Z,101624.53
2019-04-10T01:04:10.554Z,101630.23
2019-04-10T01:06:38.537Z,101624.67
2019-04-10T01:09:08.792Z,101624.45
2019-04-10T01:11:36.689Z,101626.42
2019-04-10T01:14:05.443Z,101634.67
2019-04-10T01:16:33.534Z,101629.79
2019-04-10T01:19:01.741Z,101634.45
2019-04-10T01:21:30.456Z,101616.29
2019-04-10T01:23:59.401Z,101621.22
2019-04-10T01:26:28.065Z,101622.28
2019-04-10T01:28:56.033Z,101629.07
2019-04-10T01:31:23.799Z,101629.00
2019-04-10T01:33:52.630Z,101626.27
2019-04-10T01:36:20.748Z,101633.58
2019-04-10T01:38:51.611Z,101634.34
2019-04-10T01:41:19.570Z,101553.92
2019-04-10T01:43:47.318Z,101551.46
2019-04-10T01:46:15.914Z,101616.60
2019-04-10T01:48:44.039Z,101623.29
2019-04-10T01:51:11.908Z,101623.17
2019-04-10T01:53:39.855Z,101623.10
2019-04-10T01:56:21.111Z,101620.58
2019-04-10T01:58:37.747Z,101620.14
2019-04-10T02:01:14.676Z,101620.84
2019-04-10T02:03:42.682Z,101507.28
2019-04-10T02:06:11.341Z,101618.79
2019-04-10T02:08:40.233Z,101619.38
2019-04-10T02:11:08.884Z,101612.30
2019-04-10T02:13:36.742Z,101618.11
2019-04-10T02:16:04.504Z,101615.88
2019-04-10T02:18:33.137Z,101618.66
2019-04-10T02:21:01.227Z,101625.67
2019-04-10T02:23:30.196Z,101629.60
2019-04-10T02:25:58.660Z,101629.83
2019-04-10T02:28:27.043Z,101622.05
2019-04-10T02:30:56.522Z,101627.50
2019-04-10T02:33:25.430Z,101619.33
2019-04-10T02:35:54.742Z,101619.81
2019-04-10T02:38:38.979Z,101623.37
2019-04-10T02:40:52.977Z,101628.00
2019-04-10T02:43:21.220Z,101618.08
2019-04-10T02:45:49.374Z,101624.45
2019-04-10T02:48:17.264Z,101616.58
2019-04-10T02:50:45.207Z,101613.77
2019-04-10T02:53:13.231Z,101619.52
2019-04-10T02:55:41.187Z,101616.31
2019-04-10T02:58:09.675Z,101622.49
2019-04-10T03:00:37.931Z,101475.81
2019-04-10T03:03:05.797Z,101616.83
2019-04-10T03:05:34.637Z,101616.03
2019-04-10T03:08:04.882Z,101611.62
2019-04-10T03:10:41.340Z,101623.30
2019-04-10T03:13:02.696Z,101620.68
2019-04-10T03:15:31.521Z,101627.23
2019-04-10T03:17:59.477Z,101621.64
2019-04-10T03:20:27.215Z,101621.30
2019-04-10T03:22:56.830Z,101626.27
2019-04-10T03:25:24.744Z,101627.85
2019-04-10T03:27:52.602Z,101626.84
2019-04-10T03:30:22.698Z,101628.84
2019-04-10T03:33:11.442Z,101629.83
2019-04-10T03:35:48.111Z,101635.20
2019-04-10T03:38:16.395Z,101634.98
2019-04-10T03:40:44.132Z,101644.65
2019-04-10T03:43:11.909Z,101632.63
2019-04-10T03:45:39.712Z,101637.80
2019-04-10T03:48:08.457Z,101635.06
2019-04-10T03:50:36.422Z,101630.81
2019-04-10T03:53:04.264Z,101633.41
2019-04-10T03:55:32.711Z,101633.53
2019-04-10T03:58:00.787Z,101631.88
2019-04-10T04:00:28.659Z,101635.27
2019-04-10T04:02:56.397Z,101639.63
2019-04-10T04:05:24.172Z,101635.98
2019-04-10T04:07:51.909Z,101642.00
2019-04-10T04:10:20.488Z,101637.65
2019-04-10T04:12:48.269Z,101636.48
2019-04-10T04:15:16.096Z,101631.86
2019-04-10T04:17:44.420Z,101635.68
2019-04-10T04:20:12.821Z,101639.67
2019-04-10T04:22:41.140Z,101637.61
2019-04-10T04:25:09.023Z,101638.64
2019-04-10T04:27:37.726Z,101642.03
2019-04-10T04:30:06.360Z,101640.29
2019-04-10T04:32:34.246Z,101646.34
2019-04-10T04:35:02.414Z,101644.98
2019-04-10T04:37:30.238Z,101645.08
2019-04-10T04:39:58.353Z,101649.73
2019-04-10T04:42:26.513Z,101650.21
2019-04-10T04:44:54.345Z,101647.58
2019-04-10T04:47:22.345Z,101650.39
2019-04-10T04:49:50.309Z,101655.89
2019-04-10T04:52:18.357Z,101657.37
2019-04-10T04:54:46.278Z,101658.08
2019-04-10T04:57:14.921Z,101655.58
2019-04-10T04:59:42.999Z,101662.22
2019-04-10T05:02:10.783Z,101664.42
2019-04-10T05:04:39.519Z,101548.27
2019-04-10T05:07:08.359Z,101669.88
2019-04-10T05:09:39.113Z,101665.38
2019-04-10T05:12:05.739Z,101662.53
2019-04-10T05:14:33.574Z,101670.83
2019-04-10T05:17:01.354Z,101669.50
2019-04-10T05:19:31.369Z,101664.99
2019-04-10T05:21:59.514Z,101673.51
2019-04-10T05:24:27.934Z,101682.70
2019-04-10T05:26:56.911Z,101675.13
2019-04-10T05:29:25.083Z,101680.92
2019-04-10T05:31:53.273Z,101562.28
2019-04-10T05:34:21.979Z,101686.48
2019-04-10T05:36:51.130Z,101685.39
2019-04-10T05:39:19.206Z,101686.80
2019-04-10T05:41:47.161Z,101684.25
2019-04-10T05:44:16.684Z,101689.12
2019-04-10T05:46:45.059Z,101679.87
2019-04-10T05:49:14.960Z,101682.98
2019-04-10T05:51:43.658Z,101686.11
2019-04-10T05:54:11.467Z,101685.67
2019-04-10T05:56:39.244Z,101687.86
2019-04-10T05:59:08.566Z,101687.00
2019-04-10T06:01:39.728Z,101693.84
2019-04-10T06:04:07.032Z,101694.56
2019-04-10T06:06:35.157Z,101694.08
2019-04-10T06:09:04.478Z,101709.16
2019-04-10T06:11:33.119Z,101701.95
2019-04-10T06:14:01.151Z,101698.77
2019-04-10T06:16:30.216Z,101709.14
2019-04-10T06:18:58.231Z,101703.92
2019-04-10T06:21:31.400Z,101700.77
2019-04-10T06:24:03.537Z,101701.99
2019-04-10T06:26:32.563Z,101709.55
2019-04-10T06:29:00.649Z,101703.03
2019-04-10T06:31:28.524Z,101711.20
2019-04-10T06:33:56.390Z,101713.42
2019-04-10T06:36:25.107Z,101713.03
2019-04-10T06:38:53.217Z,101716.14
2019-04-10T06:41:22.187Z,101711.38
2019-04-10T06:43:50.318Z,101720.77
2019-04-10T06:46:18.365Z,101720.66
2019-04-10T06:48:46.209Z,101725.86
2019-04-10T06:51:13.956Z,101719.45
2019-04-10T06:53:41.812Z,101590.75
2019-04-10T06:56:09.903Z,101717.55
2019-04-10T06:58:38.181Z,101713.11
2019-04-10T07:01:06.347Z,101718.25
2019-04-10T07:03:49.425Z,101720.79
2019-04-10T07:06:13.413Z,101718.86
2019-04-10T07:08:34.086Z,101716.20
2019-04-10T07:11:08.177Z,101721.41
2019-04-10T07:13:39.543Z,101716.93
2019-04-10T07:16:04.366Z,101722.19
2019-04-10T07:18:32.778Z,101722.14
2019-04-10T07:21:02.068Z,101719.31
2019-04-10T07:23:31.925Z,101725.37
2019-04-10T07:25:59.282Z,101720.09
2019-04-10T07:28:27.807Z,101721.14
2019-04-10T07:31:00.266Z,101721.14
2019-04-10T07:33:26.618Z,101729.51
2019-04-10T07:35:56.591Z,101656.33
2019-04-10T07:38:24.712Z,101736.42
2019-04-10T07:40:52.544Z,101598.69
2019-04-10T07:43:25.459Z,101737.85
2019-04-10T07:45:49.726Z,101732.23
2019-04-10T07:48:19.256Z,101739.76
2019-04-10T07:50:48.297Z,101748.06
2019-04-10T07:53:16.891Z,101599.06
2019-04-10T07:55:57.494Z,101739.65
2019-04-10T07:58:15.230Z,101737.50
2019-04-10T08:00:43.079Z,101730.58
2019-04-10T08:03:11.028Z,101729.13
2019-04-10T08:05:38.799Z,101738.58
2019-04-10T08:08:06.540Z,101733.17
2019-04-10T08:10:34.799Z,101739.90
2019-04-10T08:13:04.414Z,101731.50
2019-04-10T08:15:33.570Z,101625.04
2019-04-10T08:18:02.449Z,101746.63
2019-04-10T08:20:30.678Z,101744.88
2019-04-10T08:22:59.452Z,101739.52
2019-04-10T08:25:27.612Z,101742.56
2019-04-10T08:27:56.365Z,101745.71
2019-04-10T08:30:24.166Z,101741.30
2019-04-10T08:32:59.616Z,101748.00
2019-04-10T08:35:21.489Z,101753.20
2019-04-10T08:37:50.382Z,101742.50
2019-04-10T08:40:19.102Z,101744.80
2019-04-10T08:42:47.615Z,101737.52
2019-04-10T08:45:15.432Z,101738.94
2019-04-10T08:47:44.171Z,101653.80
2019-04-10T08:50:12.101Z,101751.20
2019-04-10T08:52:41.855Z,101722.72
2019-04-10T08:55:11.306Z,101752.42
2019-04-10T08:57:39.039Z,101753.05
2019-04-10T09:00:08.005Z,101744.39
2019-04-10T09:02:36.000Z,101751.38
2019-04-10T09:05:03.857Z,101743.87
2019-04-10T09:07:32.469Z,101755.17
2019-04-10T09:10:00.349Z,101751.84
2019-04-10T09:12:29.578Z,101752.42
2019-04-10T09:14:57.416Z,101755.00
2019-04-10T09:17:25.213Z,101747.52
2019-04-10T09:19:54.008Z,101754.12
2019-04-10T09:22:22.559Z,101755.03
2019-04-10T09:24:50.780Z,101755.84
2019-04-10T09:27:19.209Z,101759.04
2019-04-10T09:29:47.149Z,101750.97
2019-04-10T09:32:14.936Z,101749.17
2019-04-10T09:34:45.548Z,101752.36
2019-04-10T09:37:12.237Z,101743.48
2019-04-10T09:39:40.017Z,101746.99
2019-04-10T09:42:08.702Z,101750.63
2019-04-10T09:44:36.588Z,101746.57
2019-04-10T09:47:05.533Z,101747.91
2019-04-10T09:49:41.535Z,101740.39
2019-04-10T09:52:03.037Z,101745.62
2019-04-10T09:54:31.537Z,101743.36
2019-04-10T09:57:01.261Z,101744.25
2019-04-10T09:59:35.572Z,101622.30
2019-04-10T10:01:59.042Z,101737.57
2019-04-10T10:04:26.783Z,101744.75
2019-04-10T10:06:55.663Z,101684.08
2019-04-10T10:09:23.892Z,101738.77
2019-04-10T10:11:51.683Z,101741.19
2019-04-10T10:14:19.442Z,101742.05
2019-04-10T10:16:48.330Z,101736.73
2019-04-10T10:19:16.243Z,101736.38
2019-04-10T10:21:44.886Z,101635.02
2019-04-10T10:24:12.725Z,101738.79
2019-04-10T10:26:43.240Z,101745.28
2019-04-10T10:29:09.958Z,101742.20
2019-04-10T10:31:38.018Z,101741.94
2019-04-10T10:34:06.080Z,101748.36
2019-04-10T10:36:40.675Z,101744.36
2019-04-10T10:39:10.600Z,101737.71
2019-04-10T10:41:33.967Z,101746.16
2019-04-10T10:44:01.741Z,101743.06
2019-04-10T10:46:29.515Z,101736.81
2019-04-10T10:48:57.273Z,101730.60
2019-04-10T10:51:25.057Z,101732.78
2019-04-10T10:53:52.879Z,101735.51
2019-04-10T10:56:20.718Z,101731.09
2019-04-10T10:58:50.173Z,101732.41
2019-04-10T11:01:18.133Z,101731.07
2019-04-10T11:03:46.680Z,101723.94
2019-04-10T11:06:14.976Z,101733.31
2019-04-10T11:08:43.916Z,101721.66
2019-04-10T11:11:12.745Z,101732.84
2019-04-10T11:13:40.906Z,101735.05
2019-04-10T11:16:09.234Z,101731.52
2019-04-10T11:18:38.031Z,101721.72
2019-04-10T11:21:09.921Z,101718.13
2019-04-10T11:23:36.370Z,101709.17
2019-04-10T11:26:04.678Z,101709.69
2019-04-10T11:28:33.809Z,101709.72
2019-04-10T11:31:02.514Z,101707.92
2019-04-10T11:33:30.763Z,101708.34
2019-04-10T11:36:00.184Z,101702.16
2019-04-10T11:38:29.067Z,101716.40
2019-04-10T11:40:59.755Z,101715.94
2019-04-10T11:43:27.819Z,101711.48
2019-04-10T11:45:58.507Z,101710.14
2019-04-10T11:48:27.927Z,101711.05
2019-04-10T11:50:59.052Z,101708.20
2019-04-10T11:53:26.522Z,101717.59
2019-04-10T11:55:56.248Z,101705.75
2019-04-10T11:58:25.222Z,101713.01
2019-04-10T12:00:56.058Z,101711.95
2019-04-10T12:03:24.052Z,101715.37
2019-04-10T12:05:55.149Z,101719.59
2019-04-10T12:08:45.152Z,101719.50
2019-04-10T12:13:21.998Z,101719.67
2019-04-10T12:15:50.466Z,101714.05
2019-04-10T12:18:18.408Z,101711.83
2019-04-10T12:20:46.171Z,101715.66
2019-04-10T12:23:13.957Z,101706.03
2019-04-10T12:25:41.699Z,101715.19
2019-04-10T12:28:09.615Z,101717.13
2019-04-10T12:30:37.476Z,101706.66
2019-04-10T12:33:05.442Z,101708.84
2019-04-10T12:35:33.966Z,101716.13
2019-04-10T12:38:05.401Z,101714.61
2019-04-10T12:40:31.372Z,101716.46
2019-04-10T12:42:59.229Z,101715.37
2019-04-10T12:45:26.977Z,101723.22
2019-04-10T12:47:54.807Z,101713.70
2019-04-10T12:50:22.646Z,101715.36
2019-04-10T12:52:51.277Z,101712.83
2019-04-10T12:55:19.173Z,101717.73
2019-04-10T12:57:47.612Z,101717.23
2019-04-10T13:00:18.136Z,101716.87
2019-04-10T13:02:47.014Z,101713.59
2019-04-10T13:05:15.017Z,101710.75
2019-04-10T13:07:43.597Z,101711.33
2019-04-10T13:10:12.760Z,101710.73
2019-04-10T13:12:41.732Z,101719.28
2019-04-10T13:15:13.093Z,101708.36
2019-04-10T13:17:40.877Z,101721.08
2019-04-10T13:20:09.357Z,101717.05
2019-04-10T13:22:37.181Z,101717.87
2019-04-10T13:25:06.015Z,101714.13
2019-04-10T13:27:34.775Z,101720.16
2019-04-10T13:30:02.941Z,101723.30
2019-04-10T13:32:31.882Z,101716.55
2019-04-10T13:34:59.814Z,101701.25
2019-04-10T13:37:28.405Z,101676.73
2019-04-10T13:39:57.239Z,101701.45
2019-04-10T13:42:25.164Z,101703.52
2019-04-10T13:44:53.009Z,101703.98
2019-04-10T13:47:35.836Z,101710.14
2019-04-10T13:49:57.941Z,101709.75
2019-04-10T13:52:25.984Z,101706.25
2019-04-10T13:54:54.706Z,101711.95
2019-04-10T13:57:22.672Z,101712.92
2019-04-10T13:59:50.465Z,101719.98
2019-04-10T14:02:32.169Z,101712.97
2019-04-10T14:05:00.453Z,101697.06
2019-04-10T14:07:28.389Z,101713.98
2019-04-10T14:09:56.587Z,101709.64
2019-04-10T14:12:24.982Z,101716.75
2019-04-10T14:14:55.083Z,101725.68
2019-04-10T14:17:22.366Z,101720.51
2019-04-10T14:19:52.441Z,101718.03
2019-04-10T14:22:20.262Z,101727.54
2019-04-10T14:24:49.734Z,101730.75
2019-04-10T14:27:21.767Z,101721.77
2019-04-10T14:29:51.072Z,101720.36
2019-04-10T14:32:26.429Z,101731.44
2019-04-10T14:34:54.606Z,101737.05
2019-04-10T14:37:22.797Z,101667.73
2019-04-10T14:39:51.560Z,101735.75
2019-04-10T14:42:19.506Z,101735.42
2019-04-10T14:44:47.250Z,101608.03
2019-04-10T14:47:17.053Z,101743.95
2019-04-10T14:49:45.140Z,101742.58
2019-04-10T14:52:13.014Z,101738.70
2019-04-10T14:54:40.781Z,101741.67
2019-04-10T14:57:08.656Z,101706.34
2019-04-10T14:59:36.478Z,101743.42
2019-04-10T15:02:06.441Z,101741.02
2019-04-10T15:04:35.277Z,101739.45
2019-04-10T15:07:03.925Z,101740.57
2019-04-10T15:09:31.795Z,101742.28
2019-04-10T15:11:59.560Z,101742.65
2019-04-10T15:14:27.854Z,101745.33
2019-04-10T15:17:02.662Z,101749.42
2019-04-10T15:19:25.274Z,101640.89
2019-04-10T15:21:54.063Z,101747.68
2019-04-10T15:24:21.948Z,101755.26
2019-04-10T15:26:50.885Z,101761.58
2019-04-10T15:29:18.861Z,101760.61
2019-04-10T15:31:46.704Z,101758.45
2019-04-10T15:34:14.550Z,101759.97
2019-04-10T15:36:44.708Z,101758.28
2019-04-10T15:39:12.673Z,101759.91
2019-04-10T15:41:41.293Z,101698.55
2019-04-10T15:44:09.893Z,101774.74
2019-04-10T15:46:37.779Z,101773.83
2019-04-10T15:49:05.527Z,101770.27
2019-04-10T15:51:33.334Z,101770.25
2019-04-10T15:54:02.049Z,101771.45
2019-04-10T15:56:29.944Z,101769.30
2019-04-10T15:58:58.007Z,101698.16
2019-04-10T16:01:28.342Z,101784.55
2019-04-10T16:03:55.740Z,101779.11
2019-04-10T16:06:24.994Z,101775.09
2019-04-10T16:08:53.029Z,101771.99
2019-04-10T16:11:36.223Z,101784.45
2019-04-10T16:14:16.687Z,101784.42
2019-04-10T16:16:54.929Z,101779.18
2019-04-10T16:19:34.605Z,101787.14
2019-04-10T16:22:02.690Z,101725.17
2019-04-10T16:24:31.143Z,101783.03
2019-04-10T16:26:59.989Z,101785.16
2019-04-10T16:29:28.856Z,101788.05
2019-04-10T16:31:56.756Z,101779.48
2019-04-10T16:34:24.865Z,101785.39
2019-04-10T16:36:52.923Z,101782.09
2019-04-10T16:39:20.863Z,101791.39
2019-04-10T16:41:48.746Z,101795.83
2019-04-10T16:44:17.165Z,101790.72
2019-04-10T16:46:45.219Z,101706.46
2019-04-10T16:49:13.066Z,101786.20
2019-04-10T16:51:40.897Z,101798.11
2019-04-10T16:54:08.759Z,101799.97
2019-04-10T16:56:38.032Z,101799.77
2019-04-10T16:59:06.652Z,101805.36
2019-04-10T17:01:35.040Z,101802.36
2019-04-10T17:04:02.866Z,101809.96
2019-04-10T17:06:30.629Z,101803.61
2019-04-10T17:08:58.548Z,101819.27
2019-04-10T17:11:27.204Z,101818.97
2019-04-10T17:13:55.114Z,101822.23
2019-04-10T17:16:23.899Z,101817.09
2019-04-10T17:18:51.813Z,101813.98
2019-04-10T17:21:19.972Z,101822.27
2019-04-10T17:23:48.997Z,101815.66
2019-04-10T17:26:17.142Z,101717.71
2019-04-10T17:28:45.261Z,101822.58
2019-04-10T17:31:14.573Z,101825.92
2019-04-10T17:33:43.709Z,101816.28
2019-04-10T17:36:14.686Z,101829.94
2019-04-10T17:38:42.866Z,101830.29
2019-04-10T17:41:11.209Z,101832.03
2019-04-10T17:43:39.095Z,101834.03
2019-04-10T17:46:07.060Z,101832.43
2019-04-10T17:48:37.213Z,101832.03
2019-04-10T17:51:05.863Z,101838.75
2019-04-10T17:53:34.103Z,101845.41
2019-04-10T17:56:02.146Z,101848.94
2019-04-10T17:58:30.009Z,101855.52
2019-04-10T18:00:59.736Z,101859.35
2019-04-10T18:03:39.591Z,101860.52
2019-04-10T18:05:57.231Z,101867.08
2019-04-10T18:08:26.765Z,101861.77
2019-04-10T18:10:56.815Z,101859.87
2019-04-10T18:13:24.610Z,101869.81
2019-04-10T18:15:53.787Z,101875.71
2019-04-10T18:18:22.048Z,101879.92
2019-04-10T18:20:51.043Z,101887.49
2019-04-10T18:23:19.651Z,101891.52
2019-04-10T18:25:47.429Z,101889.26
2019-04-10T18:28:15.191Z,101895.24
2019-04-10T18:30:43.926Z,101899.83
2019-04-10T18:33:12.120Z,101906.19
2019-04-10T18:35:40.729Z,101905.88
2019-04-10T18:38:09.028Z,101850.73
2019-04-10T18:40:37.100Z,101920.04
2019-04-10T18:43:04.864Z,101923.16
2019-04-10T18:45:33.639Z,101915.45
2019-04-10T18:48:02.673Z,101921.37
2019-04-10T18:50:34.140Z,101923.47
2019-04-10T18:53:01.900Z,101924.80
2019-04-10T18:55:30.102Z,101932.22
2019-04-10T18:57:59.037Z,101931.18
2019-04-10T19:00:52.787Z,101933.67
2019-04-10T19:03:44.119Z,101937.74
2019-04-10T19:06:04.640Z,101950.13
2019-04-10T19:08:32.445Z,101947.22
2019-04-10T19:13:30.749Z,101947.28
2019-04-10T19:15:59.224Z,101953.03
2019-04-10T19:18:28.093Z,101950.47
2019-04-10T19:20:57.164Z,101948.94
2019-04-10T19:23:25.549Z,101957.91
2019-04-10T19:25:54.603Z,101958.59
2019-04-10T19:28:32.258Z,101961.92
2019-04-10T19:31:08.813Z,101964.91
2019-04-10T19:33:26.870Z,101966.72
2019-04-10T19:35:55.191Z,101967.16
2019-04-10T19:38:23.193Z,101967.73
2019-04-10T19:40:54.294Z,101976.99
2019-04-10T19:43:22.141Z,101979.05
2019-04-10T19:45:50.308Z,101973.95
2019-04-10T19:48:19.154Z,101964.80
2019-04-10T19:50:47.775Z,101975.65
2019-04-10T19:53:15.620Z,101981.94
2019-04-10T19:55:44.128Z,101975.92
2019-04-10T19:58:12.533Z,101974.70
2019-04-10T20:00:40.937Z,101973.32
2019-04-10T20:03:08.817Z,101972.41
2019-04-10T20:05:37.239Z,101976.30
2019-04-10T20:08:05.276Z,101974.70
2019-04-10T20:10:33.187Z,101977.31
2019-04-10T20:13:01.404Z,101977.64
2019-04-10T20:15:29.433Z,101979.33
2019-04-10T20:17:57.251Z,101980.39
2019-04-10T20:20:27.141Z,101990.33
2019-04-10T20:22:55.595Z,101993.42
2019-04-10T20:25:48.423Z,101996.66
2019-04-10T20:28:16.870Z,101994.70
2019-04-10T20:30:44.729Z,101921.31
2019-04-10T20:33:12.536Z,101946.91
2019-04-10T20:35:40.472Z,101999.64
2019-04-10T20:38:09.325Z,102003.47
2019-04-10T20:40:38.106Z,102003.17
2019-04-10T20:43:18.546Z,102002.63
2019-04-10T20:45:48.074Z,102019.19
2019-04-10T20:48:16.176Z,102011.34
2019-04-10T20:50:44.162Z,102016.00
2019-04-10T20:53:12.295Z,102016.09
2019-04-10T20:55:41.897Z,102015.12
2019-04-10T20:58:18.640Z,102015.52
2019-04-10T21:00:46.872Z,102012.14
2019-04-10T21:03:15.529Z,102019.70
2019-04-10T21:05:44.447Z,102024.30
2019-04-10T21:08:13.642Z,102029.39
2019-04-10T21:10:41.488Z,102028.75
2019-04-10T21:13:17.069Z,102027.95
2019-04-10T21:15:44.987Z,101906.19
2019-04-10T21:18:13.178Z,102037.86
2019-04-10T21:20:41.079Z,102037.69
2019-04-10T21:23:08.857Z,101896.22
2019-04-10T21:25:36.617Z,102040.41
2019-04-10T21:28:04.857Z,102038.82
2019-04-10T21:37:28.478Z,102041.59
2019-04-10T21:39:56.294Z,102048.27
2019-04-10T21:42:25.736Z,101909.13
2019-04-10T21:44:53.499Z,102049.54
2019-04-10T21:47:21.668Z,102052.34
2019-04-10T21:49:50.528Z,102052.08
2019-04-10T21:52:18.624Z,102058.95
2019-04-10T21:54:52.228Z,102050.98
2019-04-10T21:57:16.087Z,101982.48
2019-04-10T21:59:43.861Z,102057.13
2019-04-10T22:02:11.650Z,102059.44
2019-04-10T22:04:41.340Z,102054.61
2019-04-10T22:07:22.169Z,102067.75
2019-04-10T22:09:59.410Z,102065.66
2019-04-10T22:12:31.615Z,102061.80
2019-04-10T22:14:58.047Z,102056.83
2019-04-10T22:17:26.809Z,102056.69
2019-04-10T22:19:55.016Z,102061.58
2019-04-10T22:22:22.829Z,102061.33
2019-04-10T22:24:50.627Z,102066.03
2019-04-10T22:27:19.044Z,102062.59
2019-04-10T22:29:46.971Z,102065.23
2019-04-10T22:32:14.744Z,102071.16
2019-04-10T22:34:48.099Z,102072.55
2019-04-10T22:37:16.943Z,102071.27
2019-04-10T22:39:44.830Z,102074.06
2019-04-10T22:42:13.013Z,102073.63
2019-04-10T22:44:45.181Z,102077.83
2019-04-10T22:47:11.310Z,101978.50
2019-04-10T22:49:39.330Z,102082.81
2019-04-10T22:52:07.184Z,102079.31
2019-04-10T22:54:35.019Z,102085.48
2019-04-10T22:57:04.731Z,102086.97
2019-04-10T22:59:32.670Z,102089.62
2019-04-10T23:02:07.189Z,102095.84
2019-04-10T23:04:30.633Z,102089.67
2019-04-10T23:07:01.959Z,102088.75
2019-04-10T23:09:33.407Z,102092.45
2019-04-10T23:12:02.232Z,102092.05
2019-04-10T23:14:31.100Z,102089.96
2019-04-10T23:17:00.059Z,102088.67
2019-04-10T23:19:28.151Z,102046.41
2019-04-10T23:21:56.709Z,102096.43
2019-04-10T23:24:24.562Z,102092.44
2019-04-10T23:26:53.324Z,102095.38
2019-04-10T23:29:22.273Z,102091.47
2019-04-10T23:31:50.105Z,102096.78
2019-04-10T23:34:18.875Z,102089.45
2019-04-10T23:36:46.711Z,102098.89
2019-04-10T23:39:14.420Z,102095.85
2019-04-10T23:41:42.409Z,102093.24
2019-04-10T23:44:13.296Z,102092.52
2019-04-10T23:46:43.348Z,102097.33
2019-04-10T23:49:11.546Z,102095.18
2019-04-10T23:51:39.250Z,102100.74
2019-04-10T23:54:06.991Z,102092.52
2019-04-10T23:56:35.661Z,102100.18
2019-04-10T23:59:04.490Z,102102.18
